Ramsey, IL

1:01 AM CDT on September 16, 2014 (GMT -0500)
Taylorville Municipal | Change Station
CLOSE
Current Station
Airport
Location: Taylorville,
Elevation: 623 ft
Nearby Weather Stations

Elev 623 ft 39.54 °N, 89.33 °W | Updated 6 minutes ago

Overcast
Overcast
54 °F
Feels Like 54 °F
N
12
Wind Variable Wind from North
Gusts 16 mph

Today
High -- | Low -- °F
--% Chance of Precip.
Yesterday
High -- | Low -- °F
Precip. -- in
6:38 AM 7:03 PM
Waning Gibbous, 48% visible
Pressure 30.18 in
Visibility 10.0 miles
Clouds Overcast 1100 ft
Dew Point 54 °F
Humidity 100%
Rainfall 0.00 in
Snow Depth Not available.
UV 0 out of 12
Pollen 4.40 out of 12
Air Quality Not available.
Flu Activity Not available.
METAR KTAZ 160555Z AUTO 01010G14KT 10SM OVC011 12/12 A3018 RMK AO2

More Conditions Fewer Conditions

Pressure 30.18 in
Visibility 10.0 miles
Clouds Overcast 1100 ft
Dew Point 54 °F
Humidity 100%
Rainfall 0.00 in
Snow Depth Not available.
UV 0 out of 12
Pollen 4.40 out of 12
Air Quality Not available.
Flu Activity Not available.
METAR KTAZ 160555Z AUTO 01010G14KT 10SM OVC011 12/12 A3018 RMK AO2

More Conditions Fewer Conditions

10-Day Weather Forecast

Almanac

Astronomy

Sep. 16, 2014 Rise Set
Actual Time 6:38 AM CDT 7:03 PM CDT
Civil Twilight 6:11 AM CDT 7:29 PM CDT
Nautical Twilight 5:40 AM CDT 8:01 PM CDT
Astronomical Twilight 5:08 AM CDT 8:33 PM CDT
Moon No Moon Rise 2:24 PM CDT
Length of Visible Light 13h 18m
Length of Day
12h 24m
Tomorrow will be 2m 33s shorter.
Waning Gibbous, 48% of the Moon is Illuminated
Today
Waning Gibbous
Sep 24
New
Oct 1
First Quarter
Oct 8
Full
Oct 15
Last Quarter

Today's Extremes

State Highs State Lows

Community

WunderPhotos

Upload Photos

1,753,702 photos uploaded!

Nearby

Snow Depth

Station Depth Elevation
No new snow has been reported.

Earthquake Activity

City Distance Mag. Time & Date
No recent earthquake activity has been reported nearby.
Minimum magnitude displayed is 2.5.

Coastal Water Temperatures

Place Temperature
No Stations Reporting

Nearby Weather Stations